sensor_id;sensor_type;location;lat;lon;timestamp;P1;durP1;ratioP1;P2;durP2;ratioP2
31660;SDS011;18267;52.234;7.444;2023-08-20T00:01:14;4.47;;;3.15;;
31660;SDS011;18267;52.234;7.444;2023-08-20T00:03:43;5.22;;;2.83;;
31660;SDS011;18267;52.234;7.444;2023-08-20T00:06:11;6.57;;;2.60;;
31660;SDS011;18267;52.234;7.444;2023-08-20T00:08:37;4.82;;;2.70;;
31660;SDS011;18267;52.234;7.444;2023-08-20T00:11:02;2.25;;;1.80;;
31660;SDS011;18267;52.234;7.444;2023-08-20T00:13:30;4.43;;;2.10;;
31660;SDS011;18267;52.234;7.444;2023-08-20T00:16:08;6.88;;;1.95;;
31660;SDS011;18267;52.234;7.444;2023-08-20T00:18:34;4.20;;;2.30;;
31660;SDS011;18267;52.234;7.444;2023-08-20T00:21:00;4.25;;;2.38;;
31660;SDS011;18267;52.234;7.444;2023-08-20T00:23:26;6.63;;;2.42;;
31660;SDS011;18267;52.234;7.444;2023-08-20T00:25:52;4.93;;;2.60;;
31660;SDS011;18267;52.234;7.444;2023-08-20T00:28:21;5.97;;;2.30;;
31660;SDS011;18267;52.234;7.444;2023-08-20T00:30:46;4.85;;;2.38;;
31660;SDS011;18267;52.234;7.444;2023-08-20T00:33:14;6.10;;;2.85;;
31660;SDS011;18267;52.234;7.444;2023-08-20T00:35:39;4.75;;;2.55;;
31660;SDS011;18267;52.234;7.444;2023-08-20T00:38:05;3.05;;;2.13;;
31660;SDS011;18267;52.234;7.444;2023-08-20T00:40:32;5.47;;;2.47;;
31660;SDS011;18267;52.234;7.444;2023-08-20T00:42:57;4.60;;;2.63;;
31660;SDS011;18267;52.234;7.444;2023-08-20T00:45:23;8.63;;;2.53;;
31660;SDS011;18267;52.234;7.444;2023-08-20T00:47:49;4.13;;;2.50;;
31660;SDS011;18267;52.234;7.444;2023-08-20T00:50:16;5.55;;;2.00;;
31660;SDS011;18267;52.234;7.444;2023-08-20T00:52:42;9.15;;;2.15;;
31660;SDS011;18267;52.234;7.444;2023-08-20T00:55:08;9.20;;;2.15;;
31660;SDS011;18267;52.234;7.444;2023-08-20T00:57:36;4.07;;;1.90;;
31660;SDS011;18267;52.234;7.444;2023-08-20T01:00:02;4.65;;;2.05;;
31660;SDS011;18267;52.234;7.444;2023-08-20T01:02:32;5.57;;;2.42;;
31660;SDS011;18267;52.234;7.444;2023-08-20T01:04:59;6.85;;;3.10;;
31660;SDS011;18267;52.234;7.444;2023-08-20T01:12:38;3.65;;;2.28;;
31660;SDS011;18267;52.234;7.444;2023-08-20T01:15:06;4.35;;;2.15;;
31660;SDS011;18267;52.234;7.444;2023-08-20T01:17:35;4.57;;;2.58;;
31660;SDS011;18267;52.234;7.444;2023-08-20T01:20:01;6.45;;;2.38;;
31660;SDS011;18267;52.234;7.444;2023-08-20T01:28:03;3.85;;;2.72;;
31660;SDS011;18267;52.234;7.444;2023-08-20T01:30:39;6.70;;;2.55;;
31660;SDS011;18267;52.234;7.444;2023-08-20T01:33:07;5.60;;;2.95;;
31660;SDS011;18267;52.234;7.444;2023-08-20T01:35:33;9.82;;;2.30;;
31660;SDS011;18267;52.234;7.444;2023-08-20T01:37:58;3.20;;;2.47;;
31660;SDS011;18267;52.234;7.444;2023-08-20T01:40:24;6.00;;;2.55;;
31660;SDS011;18267;52.234;7.444;2023-08-20T01:42:50;4.88;;;2.90;;
31660;SDS011;18267;52.234;7.444;2023-08-20T01:45:15;5.38;;;3.15;;
31660;SDS011;18267;52.234;7.444;2023-08-20T01:47:41;7.20;;;3.10;;
31660;SDS011;18267;52.234;7.444;2023-08-20T01:50:08;3.72;;;3.40;;
31660;SDS011;18267;52.234;7.444;2023-08-20T01:52:34;6.10;;;2.92;;
31660;SDS011;18267;52.234;7.444;2023-08-20T01:54:59;9.27;;;2.83;;
31660;SDS011;18267;52.234;7.444;2023-08-20T01:57:25;4.40;;;2.92;;
31660;SDS011;18267;52.234;7.444;2023-08-20T01:59:51;5.72;;;3.70;;
31660;SDS011;18267;52.234;7.444;2023-08-20T02:02:16;6.25;;;2.80;;
31660;SDS011;18267;52.234;7.444;2023-08-20T02:04:42;5.63;;;2.53;;
31660;SDS011;18267;52.234;7.444;2023-08-20T02:07:07;4.45;;;2.47;;
31660;SDS011;18267;52.234;7.444;2023-08-20T02:09:33;4.68;;;2.80;;
31660;SDS011;18267;52.234;7.444;2023-08-20T02:11:58;8.50;;;2.88;;
31660;SDS011;18267;52.234;7.444;2023-08-20T02:14:24;3.50;;;2.80;;
31660;SDS011;18267;52.234;7.444;2023-08-20T02:16:52;4.18;;;2.60;;
31660;SDS011;18267;52.234;7.444;2023-08-20T02:19:17;3.22;;;2.00;;
31660;SDS011;18267;52.234;7.444;2023-08-20T02:21:43;4.30;;;1.98;;
31660;SDS011;18267;52.234;7.444;2023-08-20T02:24:09;2.50;;;1.27;;
31660;SDS011;18267;52.234;7.444;2023-08-20T02:26:34;2.22;;;1.40;;
31660;SDS011;18267;52.234;7.444;2023-08-20T02:29:00;3.17;;;1.30;;
31660;SDS011;18267;52.234;7.444;2023-08-20T02:31:25;3.20;;;1.90;;
31660;SDS011;18267;52.234;7.444;2023-08-20T02:33:51;3.90;;;1.70;;
31660;SDS011;18267;52.234;7.444;2023-08-20T02:36:17;8.68;;;1.95;;
31660;SDS011;18267;52.234;7.444;2023-08-20T02:38:44;2.88;;;2.38;;
31660;SDS011;18267;52.234;7.444;2023-08-20T02:41:10;6.88;;;2.55;;
31660;SDS011;18267;52.234;7.444;2023-08-20T02:43:37;5.20;;;2.25;;
31660;SDS011;18267;52.234;7.444;2023-08-20T02:46:02;4.30;;;2.40;;
31660;SDS011;18267;52.234;7.444;2023-08-20T02:48:28;8.02;;;2.80;;
31660;SDS011;18267;52.234;7.444;2023-08-20T02:50:54;6.10;;;2.50;;
31660;SDS011;18267;52.234;7.444;2023-08-20T02:53:27;5.68;;;2.50;;
31660;SDS011;18267;52.234;7.444;2023-08-20T02:55:53;6.47;;;3.00;;
31660;SDS011;18267;52.234;7.444;2023-08-20T02:58:19;4.18;;;2.67;;
31660;SDS011;18267;52.234;7.444;2023-08-20T03:00:45;6.07;;;2.95;;
31660;SDS011;18267;52.234;7.444;2023-08-20T03:03:11;4.43;;;2.95;;
31660;SDS011;18267;52.234;7.444;2023-08-20T03:05:37;9.20;;;3.00;;
31660;SDS011;18267;52.234;7.444;2023-08-20T03:08:03;6.45;;;3.20;;
31660;SDS011;18267;52.234;7.444;2023-08-20T03:10:30;10.93;;;3.78;;
31660;SDS011;18267;52.234;7.444;2023-08-20T03:12:59;5.53;;;3.10;;
31660;SDS011;18267;52.234;7.444;2023-08-20T03:15:25;8.57;;;3.08;;
31660;SDS011;18267;52.234;7.444;2023-08-20T03:17:51;5.32;;;3.67;;
31660;SDS011;18267;52.234;7.444;2023-08-20T03:20:18;8.57;;;3.38;;
31660;SDS011;18267;52.234;7.444;2023-08-20T03:22:43;7.75;;;3.90;;
31660;SDS011;18267;52.234;7.444;2023-08-20T03:25:09;4.95;;;3.80;;
31660;SDS011;18267;52.234;7.444;2023-08-20T03:27:34;4.60;;;3.22;;
31660;SDS011;18267;52.234;7.444;2023-08-20T03:30:01;7.47;;;3.80;;
31660;SDS011;18267;52.234;7.444;2023-08-20T03:32:27;11.85;;;4.05;;
31660;SDS011;18267;52.234;7.444;2023-08-20T03:34:56;6.30;;;3.67;;
31660;SDS011;18267;52.234;7.444;2023-08-20T03:37:24;8.63;;;3.80;;
31660;SDS011;18267;52.234;7.444;2023-08-20T03:39:50;12.18;;;4.18;;
31660;SDS011;18267;52.234;7.444;2023-08-20T03:42:16;4.13;;;2.95;;
31660;SDS011;18267;52.234;7.444;2023-08-20T03:44:42;4.78;;;3.33;;
31660;SDS011;18267;52.234;7.444;2023-08-20T03:47:07;5.07;;;3.72;;
31660;SDS011;18267;52.234;7.444;2023-08-20T03:49:33;9.88;;;3.85;;
31660;SDS011;18267;52.234;7.444;2023-08-20T03:51:58;8.48;;;3.95;;
31660;SDS011;18267;52.234;7.444;2023-08-20T03:54:26;11.93;;;3.67;;
31660;SDS011;18267;52.234;7.444;2023-08-20T03:56:53;8.65;;;3.90;;
31660;SDS011;18267;52.234;7.444;2023-08-20T03:59:18;4.75;;;3.75;;
31660;SDS011;18267;52.234;7.444;2023-08-20T04:01:44;6.85;;;4.03;;
31660;SDS011;18267;52.234;7.444;2023-08-20T04:04:09;6.32;;;3.95;;
31660;SDS011;18267;52.234;7.444;2023-08-20T04:06:35;6.85;;;4.72;;
31660;SDS011;18267;52.234;7.444;2023-08-20T04:09:00;10.93;;;4.20;;
31660;SDS011;18267;52.234;7.444;2023-08-20T04:11:26;11.27;;;2.92;;
31660;SDS011;18267;52.234;7.444;2023-08-20T04:13:52;6.57;;;3.20;;
31660;SDS011;18267;52.234;7.444;2023-08-20T04:16:17;5.35;;;3.08;;
31660;SDS011;18267;52.234;7.444;2023-08-20T04:18:43;7.38;;;3.30;;
31660;SDS011;18267;52.234;7.444;2023-08-20T04:21:08;11.00;;;3.22;;
31660;SDS011;18267;52.234;7.444;2023-08-20T04:23:34;7.35;;;4.03;;
31660;SDS011;18267;52.234;7.444;2023-08-20T04:25:59;7.75;;;3.05;;
31660;SDS011;18267;52.234;7.444;2023-08-20T04:28:25;8.05;;;3.38;;
31660;SDS011;18267;52.234;7.444;2023-08-20T04:30:53;5.80;;;3.53;;
31660;SDS011;18267;52.234;7.444;2023-08-20T04:33:19;6.60;;;4.18;;
31660;SDS011;18267;52.234;7.444;2023-08-20T04:35:45;7.13;;;3.72;;
31660;SDS011;18267;52.234;7.444;2023-08-20T04:38:11;5.63;;;3.58;;
31660;SDS011;18267;52.234;7.444;2023-08-20T04:40:37;6.82;;;3.25;;
31660;SDS011;18267;52.234;7.444;2023-08-20T04:43:03;3.45;;;3.03;;
31660;SDS011;18267;52.234;7.444;2023-08-20T04:45:28;5.55;;;3.65;;
31660;SDS011;18267;52.234;7.444;2023-08-20T04:47:54;7.50;;;3.63;;
31660;SDS011;18267;52.234;7.444;2023-08-20T04:50:19;5.00;;;3.50;;
31660;SDS011;18267;52.234;7.444;2023-08-20T04:52:45;9.23;;;3.67;;
31660;SDS011;18267;52.234;7.444;2023-08-20T04:55:10;3.05;;;2.67;;
31660;SDS011;18267;52.234;7.444;2023-08-20T04:57:36;6.38;;;3.38;;
31660;SDS011;18267;52.234;7.444;2023-08-20T05:00:02;4.28;;;3.13;;
31660;SDS011;18267;52.234;7.444;2023-08-20T05:02:28;4.63;;;2.88;;
31660;SDS011;18267;52.234;7.444;2023-08-20T05:04:53;5.18;;;2.67;;
31660;SDS011;18267;52.234;7.444;2023-08-20T05:07:20;3.33;;;3.03;;
31660;SDS011;18267;52.234;7.444;2023-08-20T05:09:45;11.63;;;4.28;;
31660;SDS011;18267;52.234;7.444;2023-08-20T05:12:11;6.38;;;3.47;;
31660;SDS011;18267;52.234;7.444;2023-08-20T05:14:37;3.85;;;3.10;;
31660;SDS011;18267;52.234;7.444;2023-08-20T05:17:02;3.92;;;3.35;;
31660;SDS011;18267;52.234;7.444;2023-08-20T05:19:28;6.72;;;3.72;;
31660;SDS011;18267;52.234;7.444;2023-08-20T05:21:54;5.78;;;3.53;;
31660;SDS011;18267;52.234;7.444;2023-08-20T05:24:22;4.80;;;3.47;;
31660;SDS011;18267;52.234;7.444;2023-08-20T05:26:50;7.63;;;4.43;;
31660;SDS011;18267;52.234;7.444;2023-08-20T05:29:42;10.55;;;5.20;;
31660;SDS011;18267;52.234;7.444;2023-08-20T05:32:08;6.70;;;4.15;;
31660;SDS011;18267;52.234;7.444;2023-08-20T05:34:33;7.53;;;3.90;;
31660;SDS011;18267;52.234;7.444;2023-08-20T05:36:59;6.35;;;3.30;;
31660;SDS011;18267;52.234;7.444;2023-08-20T05:39:25;7.85;;;4.18;;
31660;SDS011;18267;52.234;7.444;2023-08-20T05:41:52;4.97;;;4.10;;
31660;SDS011;18267;52.234;7.444;2023-08-20T05:44:18;11.02;;;4.00;;
31660;SDS011;18267;52.234;7.444;2023-08-20T05:46:44;6.78;;;4.40;;
31660;SDS011;18267;52.234;7.444;2023-08-20T05:49:10;6.72;;;4.00;;
31660;SDS011;18267;52.234;7.444;2023-08-20T05:51:37;6.63;;;4.75;;
31660;SDS011;18267;52.234;7.444;2023-08-20T05:54:02;6.53;;;4.82;;
31660;SDS011;18267;52.234;7.444;2023-08-20T05:56:28;11.07;;;4.97;;
31660;SDS011;18267;52.234;7.444;2023-08-20T05:58:54;8.55;;;4.70;;
31660;SDS011;18267;52.234;7.444;2023-08-20T06:01:19;5.70;;;3.97;;
31660;SDS011;18267;52.234;7.444;2023-08-20T06:03:45;5.85;;;4.25;;
31660;SDS011;18267;52.234;7.444;2023-08-20T06:06:10;8.25;;;4.47;;
31660;SDS011;18267;52.234;7.444;2023-08-20T06:08:37;5.82;;;4.30;;
31660;SDS011;18267;52.234;7.444;2023-08-20T06:11:02;9.57;;;5.28;;
31660;SDS011;18267;52.234;7.444;2023-08-20T06:13:28;7.75;;;4.75;;
31660;SDS011;18267;52.234;7.444;2023-08-20T06:15:53;10.77;;;5.65;;
31660;SDS011;18267;52.234;7.444;2023-08-20T06:18:19;14.27;;;5.63;;
31660;SDS011;18267;52.234;7.444;2023-08-20T06:20:45;14.77;;;5.65;;
31660;SDS011;18267;52.234;7.444;2023-08-20T06:23:10;13.05;;;5.93;;
31660;SDS011;18267;52.234;7.444;2023-08-20T06:25:37;11.93;;;5.50;;
31660;SDS011;18267;52.234;7.444;2023-08-20T06:28:02;10.40;;;5.70;;
31660;SDS011;18267;52.234;7.444;2023-08-20T06:30:28;13.32;;;6.25;;
31660;SDS011;18267;52.234;7.444;2023-08-20T06:32:54;8.05;;;5.90;;
31660;SDS011;18267;52.234;7.444;2023-08-20T06:35:19;13.43;;;6.15;;
31660;SDS011;18267;52.234;7.444;2023-08-20T06:37:45;10.45;;;5.50;;
31660;SDS011;18267;52.234;7.444;2023-08-20T06:40:10;10.50;;;6.45;;
31660;SDS011;18267;52.234;7.444;2023-08-20T06:42:38;10.85;;;5.95;;
31660;SDS011;18267;52.234;7.444;2023-08-20T06:45:04;13.68;;;6.30;;
31660;SDS011;18267;52.234;7.444;2023-08-20T06:47:30;13.75;;;5.70;;
31660;SDS011;18267;52.234;7.444;2023-08-20T06:49:56;10.18;;;6.00;;
31660;SDS011;18267;52.234;7.444;2023-08-20T06:52:21;14.18;;;6.07;;
31660;SDS011;18267;52.234;7.444;2023-08-20T06:54:47;12.05;;;5.85;;
31660;SDS011;18267;52.234;7.444;2023-08-20T06:57:12;13.43;;;6.22;;
31660;SDS011;18267;52.234;7.444;2023-08-20T06:59:38;8.07;;;4.85;;
31660;SDS011;18267;52.234;7.444;2023-08-20T07:02:03;12.18;;;6.60;;
31660;SDS011;18267;52.234;7.444;2023-08-20T07:04:29;16.38;;;5.93;;
31660;SDS011;18267;52.234;7.444;2023-08-20T07:06:54;11.55;;;6.25;;
31660;SDS011;18267;52.234;7.444;2023-08-20T07:09:20;12.43;;;5.60;;
31660;SDS011;18267;52.234;7.444;2023-08-20T07:11:46;11.73;;;5.80;;
31660;SDS011;18267;52.234;7.444;2023-08-20T07:14:12;10.13;;;5.97;;
31660;SDS011;18267;52.234;7.444;2023-08-20T07:16:38;10.60;;;5.80;;
31660;SDS011;18267;52.234;7.444;2023-08-20T07:19:03;13.02;;;7.57;;
31660;SDS011;18267;52.234;7.444;2023-08-20T07:21:29;15.73;;;7.82;;
31660;SDS011;18267;52.234;7.444;2023-08-20T07:23:55;15.85;;;7.38;;
31660;SDS011;18267;52.234;7.444;2023-08-20T07:26:21;12.50;;;7.22;;
31660;SDS011;18267;52.234;7.444;2023-08-20T07:28:46;11.35;;;8.15;;
31660;SDS011;18267;52.234;7.444;2023-08-20T07:31:21;18.23;;;8.15;;
31660;SDS011;18267;52.234;7.444;2023-08-20T07:33:58;13.55;;;8.65;;
31660;SDS011;18267;52.234;7.444;2023-08-20T07:36:26;16.23;;;9.93;;
31660;SDS011;18267;52.234;7.444;2023-08-20T07:38:56;20.85;;;9.77;;
31660;SDS011;18267;52.234;7.444;2023-08-20T07:41:21;19.48;;;9.90;;
31660;SDS011;18267;52.234;7.444;2023-08-20T07:43:49;18.75;;;9.48;;
31660;SDS011;18267;52.234;7.444;2023-08-20T07:46:14;20.88;;;10.25;;
31660;SDS011;18267;52.234;7.444;2023-08-20T07:48:41;15.27;;;9.32;;
31660;SDS011;18267;52.234;7.444;2023-08-20T07:51:06;22.67;;;10.93;;
31660;SDS011;18267;52.234;7.444;2023-08-20T07:53:32;18.02;;;10.20;;
31660;SDS011;18267;52.234;7.444;2023-08-20T07:55:58;16.27;;;10.05;;
31660;SDS011;18267;52.234;7.444;2023-08-20T07:58:25;19.83;;;12.43;;
31660;SDS011;18267;52.234;7.444;2023-08-20T08:00:51;20.77;;;12.18;;
31660;SDS011;18267;52.234;7.444;2023-08-20T08:03:16;21.25;;;9.63;;
31660;SDS011;18267;52.234;7.444;2023-08-20T08:05:48;22.23;;;10.85;;
31660;SDS011;18267;52.234;7.444;2023-08-20T08:15:36;19.13;;;10.55;;
31660;SDS011;18267;52.234;7.444;2023-08-20T08:18:01;15.48;;;9.77;;
31660;SDS011;18267;52.234;7.444;2023-08-20T08:20:28;16.58;;;10.52;;
31660;SDS011;18267;52.234;7.444;2023-08-20T08:22:54;20.33;;;10.90;;
31660;SDS011;18267;52.234;7.444;2023-08-20T08:25:19;18.17;;;10.20;;
31660;SDS011;18267;52.234;7.444;2023-08-20T08:27:45;13.32;;;8.95;;
31660;SDS011;18267;52.234;7.444;2023-08-20T08:30:11;18.00;;;10.00;;
31660;SDS011;18267;52.234;7.444;2023-08-20T08:32:36;15.65;;;10.13;;
31660;SDS011;18267;52.234;7.444;2023-08-20T08:35:02;13.85;;;10.10;;
31660;SDS011;18267;52.234;7.444;2023-08-20T08:37:28;20.23;;;10.75;;
31660;SDS011;18267;52.234;7.444;2023-08-20T08:39:53;16.50;;;10.13;;
31660;SDS011;18267;52.234;7.444;2023-08-20T08:42:19;18.85;;;9.70;;
31660;SDS011;18267;52.234;7.444;2023-08-20T08:44:49;15.60;;;9.18;;
31660;SDS011;18267;52.234;7.444;2023-08-20T08:47:15;18.58;;;11.18;;
31660;SDS011;18267;52.234;7.444;2023-08-20T08:49:41;16.45;;;9.65;;
31660;SDS011;18267;52.234;7.444;2023-08-20T08:52:08;17.23;;;9.38;;
31660;SDS011;18267;52.234;7.444;2023-08-20T08:54:36;15.63;;;10.35;;
31660;SDS011;18267;52.234;7.444;2023-08-20T08:57:02;16.50;;;9.75;;
31660;SDS011;18267;52.234;7.444;2023-08-20T08:59:29;13.45;;;8.10;;
31660;SDS011;18267;52.234;7.444;2023-08-20T09:01:55;13.30;;;8.55;;
31660;SDS011;18267;52.234;7.444;2023-08-20T09:04:21;14.05;;;9.63;;
31660;SDS011;18267;52.234;7.444;2023-08-20T09:06:48;17.45;;;9.68;;
31660;SDS011;18267;52.234;7.444;2023-08-20T09:09:19;24.17;;;10.63;;
31660;SDS011;18267;52.234;7.444;2023-08-20T09:11:46;16.90;;;9.55;;
31660;SDS011;18267;52.234;7.444;2023-08-20T09:14:31;12.73;;;8.73;;
31660;SDS011;18267;52.234;7.444;2023-08-20T09:17:01;13.05;;;8.38;;
31660;SDS011;18267;52.234;7.444;2023-08-20T09:19:34;11.82;;;8.43;;
31660;SDS011;18267;52.234;7.444;2023-08-20T09:22:04;14.65;;;8.70;;
31660;SDS011;18267;52.234;7.444;2023-08-20T09:24:44;10.52;;;8.25;;
31660;SDS011;18267;52.234;7.444;2023-08-20T09:27:11;12.23;;;6.97;;
31660;SDS011;18267;52.234;7.444;2023-08-20T09:29:44;12.57;;;7.55;;
31660;SDS011;18267;52.234;7.444;2023-08-20T09:32:14;13.10;;;8.13;;
31660;SDS011;18267;52.234;7.444;2023-08-20T09:34:41;13.88;;;7.30;;
31660;SDS011;18267;52.234;7.444;2023-08-20T09:37:07;12.48;;;6.63;;
31660;SDS011;18267;52.234;7.444;2023-08-20T09:39:34;8.93;;;5.95;;
31660;SDS011;18267;52.234;7.444;2023-08-20T09:42:01;11.55;;;6.28;;
31660;SDS011;18267;52.234;7.444;2023-08-20T09:44:28;6.43;;;4.82;;
31660;SDS011;18267;52.234;7.444;2023-08-20T09:47:11;7.88;;;5.97;;
31660;SDS011;18267;52.234;7.444;2023-08-20T09:49:39;10.98;;;5.50;;
31660;SDS011;18267;52.234;7.444;2023-08-20T09:52:21;12.13;;;5.55;;
31660;SDS011;18267;52.234;7.444;2023-08-20T09:57:27;12.45;;;5.30;;
31660;SDS011;18267;52.234;7.444;2023-08-20T09:59:58;9.40;;;6.20;;
31660;SDS011;18267;52.234;7.444;2023-08-20T10:02:24;12.75;;;7.72;;
31660;SDS011;18267;52.234;7.444;2023-08-20T10:04:51;9.00;;;6.78;;
31660;SDS011;18267;52.234;7.444;2023-08-20T10:07:17;6.18;;;5.57;;
31660;SDS011;18267;52.234;7.444;2023-08-20T10:09:43;6.80;;;5.63;;
31660;SDS011;18267;52.234;7.444;2023-08-20T10:12:13;7.88;;;5.63;;
31660;SDS011;18267;52.234;7.444;2023-08-20T10:14:40;7.82;;;5.18;;
31660;SDS011;18267;52.234;7.444;2023-08-20T10:17:07;6.53;;;4.50;;
31660;SDS011;18267;52.234;7.444;2023-08-20T10:19:33;12.23;;;5.82;;
31660;SDS011;18267;52.234;7.444;2023-08-20T10:22:01;8.48;;;5.57;;
31660;SDS011;18267;52.234;7.444;2023-08-20T10:24:28;8.73;;;5.10;;
31660;SDS011;18267;52.234;7.444;2023-08-20T10:27:12;9.50;;;5.03;;
31660;SDS011;18267;52.234;7.444;2023-08-20T10:29:38;5.70;;;4.70;;
31660;SDS011;18267;52.234;7.444;2023-08-20T10:32:13;9.30;;;4.90;;
31660;SDS011;18267;52.234;7.444;2023-08-20T10:34:39;5.97;;;4.30;;
31660;SDS011;18267;52.234;7.444;2023-08-20T10:37:14;9.05;;;4.20;;
31660;SDS011;18267;52.234;7.444;2023-08-20T10:39:40;7.13;;;4.28;;
31660;SDS011;18267;52.234;7.444;2023-08-20T10:45:01;9.25;;;4.00;;
31660;SDS011;18267;52.234;7.444;2023-08-20T10:47:37;5.18;;;2.72;;
31660;SDS011;18267;52.234;7.444;2023-08-20T10:50:15;6.47;;;3.40;;
31660;SDS011;18267;52.234;7.444;2023-08-20T10:52:41;7.05;;;3.35;;
31660;SDS011;18267;52.234;7.444;2023-08-20T10:55:17;4.65;;;2.92;;
31660;SDS011;18267;52.234;7.444;2023-08-20T10:57:54;5.28;;;3.28;;
31660;SDS011;18267;52.234;7.444;2023-08-20T11:00:21;3.83;;;2.42;;
31660;SDS011;18267;52.234;7.444;2023-08-20T11:02:46;5.32;;;2.88;;
31660;SDS011;18267;52.234;7.444;2023-08-20T11:05:19;5.03;;;2.10;;
31660;SDS011;18267;52.234;7.444;2023-08-20T11:07:46;4.38;;;2.40;;
31660;SDS011;18267;52.234;7.444;2023-08-20T11:10:16;6.05;;;2.40;;
31660;SDS011;18267;52.234;7.444;2023-08-20T11:12:43;2.25;;;2.05;;
31660;SDS011;18267;52.234;7.444;2023-08-20T11:15:10;2.97;;;2.20;;
31660;SDS011;18267;52.234;7.444;2023-08-20T11:17:40;8.77;;;2.50;;
31660;SDS011;18267;52.234;7.444;2023-08-20T11:20:09;8.35;;;2.08;;
31660;SDS011;18267;52.234;7.444;2023-08-20T11:22:38;1.70;;;1.42;;
31660;SDS011;18267;52.234;7.444;2023-08-20T11:25:05;6.00;;;2.58;;
31660;SDS011;18267;52.234;7.444;2023-08-20T11:27:31;4.03;;;2.50;;
31660;SDS011;18267;52.234;7.444;2023-08-20T11:30:00;2.47;;;1.98;;
31660;SDS011;18267;52.234;7.444;2023-08-20T11:32:29;4.32;;;2.67;;
31660;SDS011;18267;52.234;7.444;2023-08-20T11:34:55;5.28;;;2.60;;
31660;SDS011;18267;52.234;7.444;2023-08-20T11:37:21;3.85;;;2.30;;
31660;SDS011;18267;52.234;7.444;2023-08-20T11:39:48;5.10;;;1.50;;
31660;SDS011;18267;52.234;7.444;2023-08-20T11:42:14;4.78;;;2.00;;
31660;SDS011;18267;52.234;7.444;2023-08-20T11:44:43;2.80;;;1.60;;
31660;SDS011;18267;52.234;7.444;2023-08-20T11:47:17;9.43;;;1.90;;
31660;SDS011;18267;52.234;7.444;2023-08-20T11:49:45;4.68;;;1.77;;
31660;SDS011;18267;52.234;7.444;2023-08-20T11:52:11;3.95;;;1.55;;
31660;SDS011;18267;52.234;7.444;2023-08-20T11:54:42;8.98;;;1.88;;
31660;SDS011;18267;52.234;7.444;2023-08-20T11:57:08;3.33;;;1.38;;
31660;SDS011;18267;52.234;7.444;2023-08-20T11:59:34;4.07;;;1.10;;
31660;SDS011;18267;52.234;7.444;2023-08-20T12:02:00;5.40;;;1.58;;
31660;SDS011;18267;52.234;7.444;2023-08-20T12:04:28;3.42;;;1.30;;
31660;SDS011;18267;52.234;7.444;2023-08-20T12:07:01;3.75;;;1.15;;
31660;SDS011;18267;52.234;7.444;2023-08-20T12:09:30;5.80;;;1.42;;
31660;SDS011;18267;52.234;7.444;2023-08-20T12:11:58;4.50;;;1.40;;
31660;SDS011;18267;52.234;7.444;2023-08-20T12:14:24;3.97;;;1.17;;
31660;SDS011;18267;52.234;7.444;2023-08-20T12:16:50;5.78;;;1.75;;
31660;SDS011;18267;52.234;7.444;2023-08-20T12:19:16;5.28;;;1.90;;
31660;SDS011;18267;52.234;7.444;2023-08-20T12:21:41;5.22;;;1.52;;
31660;SDS011;18267;52.234;7.444;2023-08-20T12:24:08;7.30;;;1.70;;
31660;SDS011;18267;52.234;7.444;2023-08-20T12:26:35;5.32;;;1.67;;
31660;SDS011;18267;52.234;7.444;2023-08-20T12:29:01;5.50;;;1.50;;
31660;SDS011;18267;52.234;7.444;2023-08-20T12:31:27;2.25;;;1.80;;
31660;SDS011;18267;52.234;7.444;2023-08-20T12:33:52;1.90;;;1.10;;
31660;SDS011;18267;52.234;7.444;2023-08-20T12:36:18;2.53;;;1.42;;
31660;SDS011;18267;52.234;7.444;2023-08-20T12:38:44;3.10;;;1.15;;
31660;SDS011;18267;52.234;7.444;2023-08-20T12:41:09;4.45;;;1.05;;
31660;SDS011;18267;52.234;7.444;2023-08-20T12:43:35;4.63;;;1.50;;
31660;SDS011;18267;52.234;7.444;2023-08-20T12:46:01;3.10;;;1.05;;
31660;SDS011;18267;52.234;7.444;2023-08-20T12:48:26;5.38;;;1.38;;
31660;SDS011;18267;52.234;7.444;2023-08-20T12:50:52;26.02;;;1.92;;
31660;SDS011;18267;52.234;7.444;2023-08-20T12:53:17;5.88;;;1.42;;
31660;SDS011;18267;52.234;7.444;2023-08-20T12:55:43;5.28;;;1.38;;
31660;SDS011;18267;52.234;7.444;2023-08-20T12:58:09;2.33;;;0.82;;
31660;SDS011;18267;52.234;7.444;2023-08-20T13:00:35;10.88;;;1.20;;
31660;SDS011;18267;52.234;7.444;2023-08-20T13:03:02;9.50;;;1.30;;
31660;SDS011;18267;52.234;7.444;2023-08-20T13:05:28;2.03;;;0.82;;
31660;SDS011;18267;52.234;7.444;2023-08-20T13:07:54;2.85;;;0.70;;
31660;SDS011;18267;52.234;7.444;2023-08-20T13:10:20;2.33;;;0.90;;
31660;SDS011;18267;52.234;7.444;2023-08-20T13:12:50;11.30;;;1.02;;
31660;SDS011;18267;52.234;7.444;2023-08-20T13:15:18;5.32;;;0.60;;
31660;SDS011;18267;52.234;7.444;2023-08-20T13:17:46;4.88;;;0.60;;
31660;SDS011;18267;52.234;7.444;2023-08-20T13:20:13;7.45;;;0.70;;
31660;SDS011;18267;52.234;7.444;2023-08-20T13:22:43;1.98;;;0.57;;
31660;SDS011;18267;52.234;7.444;2023-08-20T13:25:12;7.45;;;0.93;;
31660;SDS011;18267;52.234;7.444;2023-08-20T13:27:38;3.17;;;0.98;;
31660;SDS011;18267;52.234;7.444;2023-08-20T13:30:04;2.95;;;0.88;;
31660;SDS011;18267;52.234;7.444;2023-08-20T13:32:30;8.57;;;1.55;;
31660;SDS011;18267;52.234;7.444;2023-08-20T13:34:55;2.95;;;1.08;;
31660;SDS011;18267;52.234;7.444;2023-08-20T13:37:21;6.40;;;1.08;;
31660;SDS011;18267;52.234;7.444;2023-08-20T13:39:46;4.93;;;1.05;;
31660;SDS011;18267;52.234;7.444;2023-08-20T13:42:12;2.83;;;0.90;;
31660;SDS011;18267;52.234;7.444;2023-08-20T13:44:37;3.03;;;0.70;;
31660;SDS011;18267;52.234;7.444;2023-08-20T13:47:03;4.20;;;0.88;;
31660;SDS011;18267;52.234;7.444;2023-08-20T13:49:29;4.13;;;0.73;;
31660;SDS011;18267;52.234;7.444;2023-08-20T13:51:55;1.50;;;0.68;;
31660;SDS011;18267;52.234;7.444;2023-08-20T13:54:20;1.80;;;0.70;;
31660;SDS011;18267;52.234;7.444;2023-08-20T13:56:46;1.13;;;0.60;;
31660;SDS011;18267;52.234;7.444;2023-08-20T13:59:12;9.52;;;0.80;;
31660;SDS011;18267;52.234;7.444;2023-08-20T14:01:41;2.72;;;0.60;;
31660;SDS011;18267;52.234;7.444;2023-08-20T14:04:07;1.65;;;0.73;;
31660;SDS011;18267;52.234;7.444;2023-08-20T14:06:33;0.73;;;0.45;;
31660;SDS011;18267;52.234;7.444;2023-08-20T14:08:59;3.22;;;0.55;;
31660;SDS011;18267;52.234;7.444;2023-08-20T14:11:24;1.58;;;0.75;;
31660;SDS011;18267;52.234;7.444;2023-08-20T14:13:51;1.10;;;0.47;;
31660;SDS011;18267;52.234;7.444;2023-08-20T14:16:17;2.28;;;0.50;;
31660;SDS011;18267;52.234;7.444;2023-08-20T14:18:43;2.20;;;0.70;;
31660;SDS011;18267;52.234;7.444;2023-08-20T14:21:08;2.33;;;0.90;;
31660;SDS011;18267;52.234;7.444;2023-08-20T14:23:34;4.68;;;0.60;;
31660;SDS011;18267;52.234;7.444;2023-08-20T14:26:00;5.07;;;0.57;;
31660;SDS011;18267;52.234;7.444;2023-08-20T14:28:25;1.75;;;0.50;;
31660;SDS011;18267;52.234;7.444;2023-08-20T14:30:51;1.60;;;0.40;;
31660;SDS011;18267;52.234;7.444;2023-08-20T14:33:19;1.65;;;0.70;;
31660;SDS011;18267;52.234;7.444;2023-08-20T14:35:45;0.32;;;0.30;;
31660;SDS011;18267;52.234;7.444;2023-08-20T14:38:11;4.30;;;0.60;;
31660;SDS011;18267;52.234;7.444;2023-08-20T14:40:38;2.05;;;0.30;;
31660;SDS011;18267;52.234;7.444;2023-08-20T14:43:05;2.95;;;0.68;;
31660;SDS011;18267;52.234;7.444;2023-08-20T14:45:31;0.75;;;0.32;;
31660;SDS011;18267;52.234;7.444;2023-08-20T14:47:57;2.33;;;0.82;;
31660;SDS011;18267;52.234;7.444;2023-08-20T14:50:23;4.57;;;0.55;;
31660;SDS011;18267;52.234;7.444;2023-08-20T14:52:48;1.73;;;0.82;;
31660;SDS011;18267;52.234;7.444;2023-08-20T14:55:19;1.95;;;0.63;;
31660;SDS011;18267;52.234;7.444;2023-08-20T14:57:45;4.47;;;0.60;;
31660;SDS011;18267;52.234;7.444;2023-08-20T15:00:14;1.60;;;0.50;;
31660;SDS011;18267;52.234;7.444;2023-08-20T15:02:42;2.45;;;0.63;;
31660;SDS011;18267;52.234;7.444;2023-08-20T15:05:09;3.95;;;0.47;;